This is the latest recevied weather packets stored in our database for station/object kj4yre. If no packets are shown the sender has not sent any weather packets the latest 10 day(s).
| Time | Temp. | Humidity | Pressure | Rain* | Wind** | Luminosity | Snow |
|---|---|---|---|---|---|---|---|
| 1777634836 | 5.56° C | 100% | 1016.8 hPa | 0 mm | - | - | - |
| 1777629137 | 4.44° C | 100% | 1016.4 hPa | 0 mm | - | - | - |
| 1777628537 | 3.89° C | 100% | 1016.2 hPa | 0 mm | - | - | - |
| 1777628235 | 4.44° C | 100% | 1016.1 hPa | 0 mm | - | - | - |
| 1777627337 | 4.44° C | 99% | 1016.2 hPa | 0 mm | - | - | - |
| 1777626437 | 5° C | 100% | 1016.1 hPa | 0 mm | - | - | - |
| 1777624336 | 5.56° C | 96% | 1016.3 hPa | 0 mm | - | - | - |
| 1777623435 | 5.56° C | 95% | 1016 hPa | 0 mm | - | - | - |
| 1777622536 | 6.11° C | 93% | 1016.1 hPa | 0 mm | - | - | - |
| 1777621037 | 6.67° C | 89% | 1016.1 hPa | 0 mm | - | - | - |
| 1777620437 | 6.67° C | 86% | 1016.2 hPa | 0 mm | - | - | - |
| 1777619237 | 7.78° C | 84% | 1015.8 hPa | 0 mm | - | - | - |
| 1777618935 | 7.78° C | 82% | 1015.8 hPa | 0 mm | - | - | - |
| 1777618336 | 8.33° C | 81% | 1015.6 hPa | 0 mm | - | - | - |
| 1777616834 | 8.89° C | 76% | 1015.3 hPa | 0 mm | - | - | - |
| 1777616537 | 8.89° C | 76% | 1015.3 hPa | 0 mm | - | - | - |
| 1777616236 | 8.89° C | 76% | 1015.4 hPa | 0 mm | - | - | - |
| 1777614735 | 10° C | 70% | 1015.4 hPa | 0 mm | - | - | - |
| 1777611137 | 11.67° C | 63% | 1015.1 hPa | 0 mm | - | - | - |
| 1777610238 | 12.22° C | 63% | 1015 hPa | 0 mm | - | - | - |
| 1777606635 | 13.33° C | 65% | 1014.6 hPa | 0 mm | - | - | - |
| 1777606336 | 13.33° C | 65% | 1014.7 hPa | 0 mm | - | - | - |
| 1777604237 | 13.89° C | 60% | 1014.4 hPa | 0 mm | - | - | - |
| 1777601536 | 15.56° C | 56% | 1013.9 hPa | 0 mm | - | - | - |
| 1777601237 | 15.56° C | 55% | 1013.7 hPa | 0 mm | - | - | - |
* Rain latest hour (hover to see other rain measurements)
** Current wind speed in m/s (hover to see current wind gust speed)